»·PEaware :: N8625C 67L-U30

N8625C :: 67L-U30

FLIGHT INFORMATION

Flight Status: Arrived
Operator: Privately registered:
United States
More flights under this callsign
Pilot: Mike M. (17070)
Aircraft: CESSNA 172 SKYHAWK
(C172)
More flights by this aircraft type
Origin: 67L Mesquite
United States
Destination: U30 Temple Bar
United States
More flights between these airports :: More routes between these airports
Route: LAPIN
File this flight plan on PilotEdge
Remarks: Sightseeing to Hoover Dam then full stop at Temple Bar.
Altitude:
(Current/Filed)
6,500ft
Speed:
(Current/Filed)
115kts
Departed: 27-Oct-17 04:06 PM
Arrived: 27-Oct-17 04:48 PM
Distance/Time
Traveled:
290nm/0:42
Distance/Time
To Go:
Arrived

Flight Plot

Page will automatically refresh every two minutes.

Flight plan parsing failed; only flown route is shown


Map Options




Map Legend


Flown Route
Filed Route
Departure Airport
Arrival Airport
Navaid (VOR, NDB)
Fix

Horizontal Profiles

Position Reports

Time Latitude Longitude Heading Altitude Ground
Speed
27-Oct-17 16:08 36.832649 -114.058049 113 1979ft 5kts
27-Oct-17 16:09 36.835682 -114.055040 27 1979ft 22kts
27-Oct-17 16:10 36.839019 -114.051811 193 1979ft 13kts
27-Oct-17 16:11 36.825254 -114.062840 219 2260ft 88kts
27-Oct-17 16:12 36.806003 -114.086231 225 2956ft 100kts
27-Oct-17 16:13 36.786769 -114.111468 218 3660ft 104kts
27-Oct-17 16:14 36.765341 -114.134896 220 4342ft 104kts
27-Oct-17 16:15 36.744932 -114.156964 221 4913ft 106kts
27-Oct-17 16:16 36.721154 -114.178815 210 5472ft 108kts
27-Oct-17 16:17 36.696356 -114.200660 217 5981ft 111kts
27-Oct-17 16:18 36.673637 -114.218421 110 6339ft 109kts
27-Oct-17 16:19 36.690572 -114.214687 227 6208ft 134kts
27-Oct-17 16:20 36.662337 -114.243403 215 6054ft 145kts
27-Oct-17 16:21 36.635091 -114.271530 217 6427ft 118kts
27-Oct-17 16:22 36.608174 -114.298890 194 6541ft 130kts
27-Oct-17 16:23 36.575747 -114.321314 212 6536ft 137kts
27-Oct-17 16:24 36.545055 -114.349741 216 6528ft 139kts
27-Oct-17 16:25 36.514429 -114.379889 218 6415ft 144kts
27-Oct-17 16:26 36.484352 -114.410143 220 6479ft 138kts
27-Oct-17 16:27 36.453723 -114.440428 216 6371ft 142kts
27-Oct-17 16:28 36.423304 -114.470725 218 6377ft 139kts
27-Oct-17 16:29 36.393257 -114.500838 219 6377ft 139kts
27-Oct-17 16:30 36.363218 -114.530931 219 6377ft 138kts
27-Oct-17 16:31 36.333465 -114.560715 219 6377ft 138kts
27-Oct-17 16:32 36.303661 -114.590505 219 6377ft 138kts
27-Oct-17 16:33 36.273787 -114.620336 219 6377ft 138kts
27-Oct-17 16:34 36.243910 -114.650137 218 6377ft 138kts
27-Oct-17 16:35 36.214037 -114.679905 219 6377ft 137kts
27-Oct-17 16:36 36.184463 -114.709348 219 6377ft 137kts
27-Oct-17 16:37 36.155918 -114.737364 214 6230ft 140kts
27-Oct-17 16:38 36.120539 -114.751888 172 5635ft 136kts
27-Oct-17 16:39 36.083431 -114.750135 178 5421ft 141kts
27-Oct-17 16:40 36.044657 -114.753912 192 5198ft 143kts
27-Oct-17 16:41 36.009667 -114.745284 116 5053ft 133kts
27-Oct-17 16:42 35.996395 -114.705120 113 5379ft 121kts
27-Oct-17 16:43 35.979562 -114.669353 117 5624ft 125kts
27-Oct-17 16:44 35.969803 -114.629868 79 5860ft 123kts
27-Oct-17 16:45 35.975545 -114.588287 75 6065ft 123kts
27-Oct-17 16:46 35.983353 -114.545946 74 5960ft 132kts
27-Oct-17 16:47 35.995160 -114.503466 67 5557ft 135kts
27-Oct-17 16:48 36.000511 -114.457420 85 4932ft 143kts
27-Oct-17 16:49 35.997601 -114.410265 102 4039ft 129kts
27-Oct-17 16:50 35.989022 -114.372979 100 2931ft 95kts
27-Oct-17 16:51 35.993048 -114.345818 36 2420ft 88kts
27-Oct-17 16:52 36.013226 -114.336881 11 1630ft 69kts
27-Oct-17 16:53 36.021412 -114.334526 91 1492ft 6kts
27-Oct-17 16:54 36.021398 -114.334291 92 1491ft 0kts
27-Oct-17 16:55 36.021398 -114.334291 92 1491ft 0kts
27-Oct-17 16:56 36.021398 -114.334291 92 1491ft 0kts
27-Oct-17 16:57 33.932910 -118.399793 78 112ft 0kts
27-Oct-17 17:01 32.734272 -117.185249 196 17ft 0kts
27-Oct-17 17:02 32.734272 -117.185249 196 17ft 0kts
27-Oct-17 17:03 32.734272 -117.185249 196 17ft 0kts
27-Oct-17 17:04 32.734272 -117.185249 196 17ft 0kts

Navigation Log

Ident Type
Flight plan parsing failed, navigation log unavailable